sensor_id;sensor_type;location;lat;lon;timestamp;P1;durP1;ratioP1;P2;durP2;ratioP2
43413;SDS011;29013;49.676;8.606;2023-02-02T00:04:05;6.76;;;1.53;;
43413;SDS011;29013;49.676;8.606;2023-02-02T00:09:31;8.32;;;1.57;;
43413;SDS011;29013;49.676;8.606;2023-02-02T00:14:49;6.03;;;1.36;;
43413;SDS011;29013;49.676;8.606;2023-02-02T00:20:13;7.18;;;1.46;;
43413;SDS011;29013;49.676;8.606;2023-02-02T00:25:34;11.72;;;1.67;;
43413;SDS011;29013;49.676;8.606;2023-02-02T00:30:58;7.98;;;1.48;;
43413;SDS011;29013;49.676;8.606;2023-02-02T00:36:22;7.28;;;1.62;;
43413;SDS011;29013;49.676;8.606;2023-02-02T00:41:46;7.54;;;1.5;;
43413;SDS011;29013;49.676;8.606;2023-02-02T00:47:08;3.77;;;1.33;;
43413;SDS011;29013;49.676;8.606;2023-02-02T00:52:44;7.64;;;1.85;;
43413;SDS011;29013;49.676;8.606;2023-02-02T00:58:07;7.26;;;1.54;;
43413;SDS011;29013;49.676;8.606;2023-02-02T01:03:33;6.04;;;1.74;;
43413;SDS011;29013;49.676;8.606;2023-02-02T01:09:22;8.87;;;1.72;;
43413;SDS011;29013;49.676;8.606;2023-02-02T01:14:46;9.89;;;2.2;;
43413;SDS011;29013;49.676;8.606;2023-02-02T01:20:14;6.72;;;1.82;;
43413;SDS011;29013;49.676;8.606;2023-02-02T01:25:35;9.11;;;2.17;;
43413;SDS011;29013;49.676;8.606;2023-02-02T01:31:04;9.44;;;1.67;;
43413;SDS011;29013;49.676;8.606;2023-02-02T01:36:27;8.21;;;2.15;;
43413;SDS011;29013;49.676;8.606;2023-02-02T01:41:52;8.82;;;2.0;;
43413;SDS011;29013;49.676;8.606;2023-02-02T01:47:16;9.06;;;1.78;;
43413;SDS011;29013;49.676;8.606;2023-02-02T01:52:38;6.59;;;1.73;;
43413;SDS011;29013;49.676;8.606;2023-02-02T01:58:01;6.56;;;1.67;;
43413;SDS011;29013;49.676;8.606;2023-02-02T02:03:25;6.19;;;1.93;;
43413;SDS011;29013;49.676;8.606;2023-02-02T02:09:05;8.95;;;1.99;;
43413;SDS011;29013;49.676;8.606;2023-02-02T02:14:25;8.19;;;1.87;;
43413;SDS011;29013;49.676;8.606;2023-02-02T02:19:58;7.14;;;2.16;;
43413;SDS011;29013;49.676;8.606;2023-02-02T02:26:05;8.25;;;2.1;;
43413;SDS011;29013;49.676;8.606;2023-02-02T02:37:50;6.39;;;1.68;;
43413;SDS011;29013;49.676;8.606;2023-02-02T02:43:11;10.14;;;1.83;;
43413;SDS011;29013;49.676;8.606;2023-02-02T02:48:35;8.19;;;1.53;;
43413;SDS011;29013;49.676;8.606;2023-02-02T02:53:59;4.8;;;1.44;;
43413;SDS011;29013;49.676;8.606;2023-02-02T02:59:27;10.99;;;1.63;;
43413;SDS011;29013;49.676;8.606;2023-02-02T03:04:54;9.78;;;1.67;;
43413;SDS011;29013;49.676;8.606;2023-02-02T03:10:17;7.67;;;1.66;;
43413;SDS011;29013;49.676;8.606;2023-02-02T03:15:42;7.58;;;1.5;;
43413;SDS011;29013;49.676;8.606;2023-02-02T03:21:04;7.69;;;1.82;;
43413;SDS011;29013;49.676;8.606;2023-02-02T03:26:25;5.58;;;1.71;;
43413;SDS011;29013;49.676;8.606;2023-02-02T03:31:47;6.83;;;1.51;;
43413;SDS011;29013;49.676;8.606;2023-02-02T03:37:12;4.88;;;1.53;;
43413;SDS011;29013;49.676;8.606;2023-02-02T03:42:33;4.45;;;1.74;;
43413;SDS011;29013;49.676;8.606;2023-02-02T03:47:58;4.96;;;1.31;;
43413;SDS011;29013;49.676;8.606;2023-02-02T03:53:22;4.65;;;1.12;;
43413;SDS011;29013;49.676;8.606;2023-02-02T03:58:48;4.38;;;1.13;;
43413;SDS011;29013;49.676;8.606;2023-02-02T04:04:10;5.14;;;1.84;;
43413;SDS011;29013;49.676;8.606;2023-02-02T04:09:34;5.63;;;1.52;;
43413;SDS011;29013;49.676;8.606;2023-02-02T04:14:57;9.96;;;1.83;;
43413;SDS011;29013;49.676;8.606;2023-02-02T04:20:23;5.64;;;1.65;;
43413;SDS011;29013;49.676;8.606;2023-02-02T04:25:49;6.8;;;1.67;;
43413;SDS011;29013;49.676;8.606;2023-02-02T04:31:11;7.75;;;1.72;;
43413;SDS011;29013;49.676;8.606;2023-02-02T04:36:36;8.0;;;1.88;;
43413;SDS011;29013;49.676;8.606;2023-02-02T04:42:02;8.4;;;1.6;;
43413;SDS011;29013;49.676;8.606;2023-02-02T04:47:28;5.11;;;1.53;;
43413;SDS011;29013;49.676;8.606;2023-02-02T04:52:54;8.23;;;1.95;;
43413;SDS011;29013;49.676;8.606;2023-02-02T04:58:17;5.49;;;1.5;;
43413;SDS011;29013;49.676;8.606;2023-02-02T05:03:40;6.66;;;1.66;;
43413;SDS011;29013;49.676;8.606;2023-02-02T05:09:04;7.38;;;1.55;;
43413;SDS011;29013;49.676;8.606;2023-02-02T05:14:50;6.39;;;1.36;;
43413;SDS011;29013;49.676;8.606;2023-02-02T05:20:32;8.24;;;2.02;;
43413;SDS011;29013;49.676;8.606;2023-02-02T05:25:54;10.13;;;1.69;;
43413;SDS011;29013;49.676;8.606;2023-02-02T05:31:19;7.92;;;1.61;;
43413;SDS011;29013;49.676;8.606;2023-02-02T05:36:42;4.26;;;1.19;;
43413;SDS011;29013;49.676;8.606;2023-02-02T05:42:07;6.77;;;1.21;;
43413;SDS011;29013;49.676;8.606;2023-02-02T05:47:32;6.37;;;1.49;;
43413;SDS011;29013;49.676;8.606;2023-02-02T05:52:57;7.14;;;1.64;;
43413;SDS011;29013;49.676;8.606;2023-02-02T05:58:19;7.69;;;1.65;;
43413;SDS011;29013;49.676;8.606;2023-02-02T06:03:43;4.87;;;1.82;;
43413;SDS011;29013;49.676;8.606;2023-02-02T06:09:02;5.93;;;1.56;;
43413;SDS011;29013;49.676;8.606;2023-02-02T06:14:42;5.62;;;1.34;;
43413;SDS011;29013;49.676;8.606;2023-02-02T06:20:04;4.7;;;1.59;;
43413;SDS011;29013;49.676;8.606;2023-02-02T06:25:31;3.89;;;1.13;;
43413;SDS011;29013;49.676;8.606;2023-02-02T06:30:54;6.76;;;1.49;;
43413;SDS011;29013;49.676;8.606;2023-02-02T06:36:19;6.73;;;1.52;;
43413;SDS011;29013;49.676;8.606;2023-02-02T06:41:39;6.58;;;1.45;;
43413;SDS011;29013;49.676;8.606;2023-02-02T06:47:00;4.72;;;1.35;;
43413;SDS011;29013;49.676;8.606;2023-02-02T06:52:41;6.95;;;1.65;;
43413;SDS011;29013;49.676;8.606;2023-02-02T06:58:08;9.39;;;1.95;;
43413;SDS011;29013;49.676;8.606;2023-02-02T07:03:31;4.33;;;1.44;;
43413;SDS011;29013;49.676;8.606;2023-02-02T07:08:52;7.99;;;1.89;;
43413;SDS011;29013;49.676;8.606;2023-02-02T07:14:15;5.07;;;1.29;;
43413;SDS011;29013;49.676;8.606;2023-02-02T07:19:40;5.13;;;1.19;;
43413;SDS011;29013;49.676;8.606;2023-02-02T07:25:04;5.88;;;1.48;;
43413;SDS011;29013;49.676;8.606;2023-02-02T07:30:29;9.84;;;1.6;;
43413;SDS011;29013;49.676;8.606;2023-02-02T07:35:52;7.29;;;1.42;;
43413;SDS011;29013;49.676;8.606;2023-02-02T07:41:17;5.96;;;1.86;;
43413;SDS011;29013;49.676;8.606;2023-02-02T07:46:42;7.8;;;1.47;;
43413;SDS011;29013;49.676;8.606;2023-02-02T07:52:03;4.31;;;1.39;;
43413;SDS011;29013;49.676;8.606;2023-02-02T07:57:28;5.6;;;1.38;;
43413;SDS011;29013;49.676;8.606;2023-02-02T08:02:50;4.98;;;1.69;;
43413;SDS011;29013;49.676;8.606;2023-02-02T08:08:14;3.46;;;1.38;;
43413;SDS011;29013;49.676;8.606;2023-02-02T08:13:39;3.49;;;1.47;;
43413;SDS011;29013;49.676;8.606;2023-02-02T08:19:04;9.1;;;1.52;;
43413;SDS011;29013;49.676;8.606;2023-02-02T08:24:28;6.2;;;1.54;;
43413;SDS011;29013;49.676;8.606;2023-02-02T08:29:52;5.91;;;1.48;;
43413;SDS011;29013;49.676;8.606;2023-02-02T08:35:41;5.37;;;1.61;;
43413;SDS011;29013;49.676;8.606;2023-02-02T08:41:07;6.08;;;1.38;;
43413;SDS011;29013;49.676;8.606;2023-02-02T08:46:26;6.33;;;1.64;;
43413;SDS011;29013;49.676;8.606;2023-02-02T08:51:51;7.28;;;2.32;;
43413;SDS011;29013;49.676;8.606;2023-02-02T08:57:15;6.67;;;1.63;;
43413;SDS011;29013;49.676;8.606;2023-02-02T09:02:37;2.9;;;1.39;;
43413;SDS011;29013;49.676;8.606;2023-02-02T09:07:56;3.87;;;1.14;;
43413;SDS011;29013;49.676;8.606;2023-02-02T09:13:45;7.79;;;1.88;;
43413;SDS011;29013;49.676;8.606;2023-02-02T09:19:08;4.57;;;1.3;;
43413;SDS011;29013;49.676;8.606;2023-02-02T09:24:30;6.58;;;1.25;;
43413;SDS011;29013;49.676;8.606;2023-02-02T09:29:56;5.38;;;1.25;;
43413;SDS011;29013;49.676;8.606;2023-02-02T09:35:20;6.42;;;1.39;;
43413;SDS011;29013;49.676;8.606;2023-02-02T09:40:41;8.67;;;1.61;;
43413;SDS011;29013;49.676;8.606;2023-02-02T09:46:06;5.49;;;1.26;;
43413;SDS011;29013;49.676;8.606;2023-02-02T09:51:27;6.68;;;1.3;;
43413;SDS011;29013;49.676;8.606;2023-02-02T09:57:14;4.28;;;1.87;;
43413;SDS011;29013;49.676;8.606;2023-02-02T10:02:38;9.96;;;1.28;;
43413;SDS011;29013;49.676;8.606;2023-02-02T10:08:04;6.27;;;1.33;;
43413;SDS011;29013;49.676;8.606;2023-02-02T10:13:27;4.65;;;1.22;;
43413;SDS011;29013;49.676;8.606;2023-02-02T10:18:49;6.19;;;1.14;;
43413;SDS011;29013;49.676;8.606;2023-02-02T10:24:15;5.59;;;1.15;;
43413;SDS011;29013;49.676;8.606;2023-02-02T10:29:40;5.64;;;0.83;;
43413;SDS011;29013;49.676;8.606;2023-02-02T10:40:41;3.19;;;0.97;;
43413;SDS011;29013;49.676;8.606;2023-02-02T10:46:10;4.88;;;1.1;;
43413;SDS011;29013;49.676;8.606;2023-02-02T10:51:31;5.17;;;1.01;;
43413;SDS011;29013;49.676;8.606;2023-02-02T10:56:55;4.76;;;1.01;;
43413;SDS011;29013;49.676;8.606;2023-02-02T11:02:18;4.67;;;1.06;;
43413;SDS011;29013;49.676;8.606;2023-02-02T11:07:59;4.09;;;0.92;;
43413;SDS011;29013;49.676;8.606;2023-02-02T11:13:26;3.97;;;0.94;;
43413;SDS011;29013;49.676;8.606;2023-02-02T11:18:49;5.2;;;0.93;;
43413;SDS011;29013;49.676;8.606;2023-02-02T11:24:17;3.41;;;0.97;;
43413;SDS011;29013;49.676;8.606;2023-02-02T11:29:41;4.55;;;1.02;;
43413;SDS011;29013;49.676;8.606;2023-02-02T11:35:16;3.2;;;1.11;;
43413;SDS011;29013;49.676;8.606;2023-02-02T11:40:35;3.79;;;1.07;;
43413;SDS011;29013;49.676;8.606;2023-02-02T11:46:00;2.88;;;0.67;;
43413;SDS011;29013;49.676;8.606;2023-02-02T11:51:23;2.76;;;0.64;;
43413;SDS011;29013;49.676;8.606;2023-02-02T11:56:46;3.37;;;1.17;;
43413;SDS011;29013;49.676;8.606;2023-02-02T12:07:42;2.48;;;0.65;;
43413;SDS011;29013;49.676;8.606;2023-02-02T12:13:07;0.98;;;0.4;;
43413;SDS011;29013;49.676;8.606;2023-02-02T12:18:34;3.97;;;0.75;;
43413;SDS011;29013;49.676;8.606;2023-02-02T12:24:26;1.58;;;0.56;;
43413;SDS011;29013;49.676;8.606;2023-02-02T12:35:29;1.75;;;0.39;;
43413;SDS011;29013;49.676;8.606;2023-02-02T12:41:00;1.61;;;0.32;;
43413;SDS011;29013;49.676;8.606;2023-02-02T12:46:24;1.97;;;0.46;;
43413;SDS011;29013;49.676;8.606;2023-02-02T12:52:02;1.29;;;0.38;;
43413;SDS011;29013;49.676;8.606;2023-02-02T12:57:51;1.2;;;0.6;;
43413;SDS011;29013;49.676;8.606;2023-02-02T13:03:28;1.32;;;0.45;;
43413;SDS011;29013;49.676;8.606;2023-02-02T13:08:52;1.81;;;0.59;;
43413;SDS011;29013;49.676;8.606;2023-02-02T13:14:28;1.59;;;0.42;;
43413;SDS011;29013;49.676;8.606;2023-02-02T13:19:51;2.38;;;0.63;;
43413;SDS011;29013;49.676;8.606;2023-02-02T13:25:17;2.03;;;0.49;;
43413;SDS011;29013;49.676;8.606;2023-02-02T13:30:41;2.15;;;1.07;;
43413;SDS011;29013;49.676;8.606;2023-02-02T13:36:07;2.25;;;0.51;;
43413;SDS011;29013;49.676;8.606;2023-02-02T13:41:32;1.74;;;0.44;;
43413;SDS011;29013;49.676;8.606;2023-02-02T13:46:58;2.36;;;0.39;;
43413;SDS011;29013;49.676;8.606;2023-02-02T13:53:03;1.93;;;0.44;;
43413;SDS011;29013;49.676;8.606;2023-02-02T13:58:33;1.68;;;0.35;;
43413;SDS011;29013;49.676;8.606;2023-02-02T14:03:55;1.78;;;0.47;;
43413;SDS011;29013;49.676;8.606;2023-02-02T14:09:17;3.6;;;0.6;;
43413;SDS011;29013;49.676;8.606;2023-02-02T14:14:38;1.32;;;0.39;;
43413;SDS011;29013;49.676;8.606;2023-02-02T14:20:08;2.33;;;0.39;;
43413;SDS011;29013;49.676;8.606;2023-02-02T14:43:08;1.75;;;0.44;;
43413;SDS011;29013;49.676;8.606;2023-02-02T14:48:29;1.13;;;0.39;;
43413;SDS011;29013;49.676;8.606;2023-02-02T14:53:56;0.97;;;0.34;;
43413;SDS011;29013;49.676;8.606;2023-02-02T14:59:21;0.68;;;0.28;;
43413;SDS011;29013;49.676;8.606;2023-02-02T15:04:37;2.03;;;0.63;;
43413;SDS011;29013;49.676;8.606;2023-02-02T15:16:18;3.77;;;0.64;;
43413;SDS011;29013;49.676;8.606;2023-02-02T15:21:39;2.44;;;0.54;;
43413;SDS011;29013;49.676;8.606;2023-02-02T15:27:04;1.1;;;0.36;;
43413;SDS011;29013;49.676;8.606;2023-02-02T15:32:30;2.09;;;0.54;;
43413;SDS011;29013;49.676;8.606;2023-02-02T15:37:56;1.4;;;0.61;;
43413;SDS011;29013;49.676;8.606;2023-02-02T15:43:17;3.07;;;0.54;;
43413;SDS011;29013;49.676;8.606;2023-02-02T15:48:37;1.45;;;0.54;;
43413;SDS011;29013;49.676;8.606;2023-02-02T15:53:57;1.96;;;0.51;;
43413;SDS011;29013;49.676;8.606;2023-02-02T15:59:20;1.73;;;0.65;;
43413;SDS011;29013;49.676;8.606;2023-02-02T16:04:41;3.14;;;0.57;;
43413;SDS011;29013;49.676;8.606;2023-02-02T16:10:04;1.18;;;0.43;;
43413;SDS011;29013;49.676;8.606;2023-02-02T16:16:22;4.62;;;0.82;;
43413;SDS011;29013;49.676;8.606;2023-02-02T16:22:30;4.25;;;0.73;;
43413;SDS011;29013;49.676;8.606;2023-02-02T16:27:51;3.51;;;0.68;;
43413;SDS011;29013;49.676;8.606;2023-02-02T16:38:53;2.26;;;0.65;;
43413;SDS011;29013;49.676;8.606;2023-02-02T16:50:15;2.12;;;0.66;;
43413;SDS011;29013;49.676;8.606;2023-02-02T16:55:39;5.21;;;0.76;;
43413;SDS011;29013;49.676;8.606;2023-02-02T17:01:06;4.23;;;0.81;;
43413;SDS011;29013;49.676;8.606;2023-02-02T17:06:28;4.45;;;0.97;;
43413;SDS011;29013;49.676;8.606;2023-02-02T17:11:56;3.6;;;0.79;;
43413;SDS011;29013;49.676;8.606;2023-02-02T17:17:15;1.92;;;0.81;;
43413;SDS011;29013;49.676;8.606;2023-02-02T17:22:37;3.75;;;0.94;;
43413;SDS011;29013;49.676;8.606;2023-02-02T17:27:57;3.59;;;1.48;;
43413;SDS011;29013;49.676;8.606;2023-02-02T17:33:20;3.6;;;0.97;;
43413;SDS011;29013;49.676;8.606;2023-02-02T17:38:44;4.14;;;1.08;;
43413;SDS011;29013;49.676;8.606;2023-02-02T17:44:48;3.72;;;1.15;;
43413;SDS011;29013;49.676;8.606;2023-02-02T17:50:11;3.6;;;1.34;;
43413;SDS011;29013;49.676;8.606;2023-02-02T17:55:35;4.16;;;1.03;;
43413;SDS011;29013;49.676;8.606;2023-02-02T18:01:00;3.51;;;1.02;;
43413;SDS011;29013;49.676;8.606;2023-02-02T18:06:22;7.41;;;1.02;;
43413;SDS011;29013;49.676;8.606;2023-02-02T18:11:47;4.04;;;1.17;;
43413;SDS011;29013;49.676;8.606;2023-02-02T18:17:12;2.84;;;1.15;;
43413;SDS011;29013;49.676;8.606;2023-02-02T18:22:38;4.38;;;0.95;;
43413;SDS011;29013;49.676;8.606;2023-02-02T18:28:04;6.81;;;1.09;;
43413;SDS011;29013;49.676;8.606;2023-02-02T18:33:31;3.43;;;1.0;;
43413;SDS011;29013;49.676;8.606;2023-02-02T18:38:56;5.36;;;1.02;;
43413;SDS011;29013;49.676;8.606;2023-02-02T18:44:16;2.53;;;1.01;;
43413;SDS011;29013;49.676;8.606;2023-02-02T18:49:39;3.26;;;0.99;;
43413;SDS011;29013;49.676;8.606;2023-02-02T18:55:05;4.31;;;1.02;;
43413;SDS011;29013;49.676;8.606;2023-02-02T19:00:31;2.71;;;0.98;;
43413;SDS011;29013;49.676;8.606;2023-02-02T19:05:54;2.72;;;0.98;;
43413;SDS011;29013;49.676;8.606;2023-02-02T19:11:17;4.21;;;1.1;;
43413;SDS011;29013;49.676;8.606;2023-02-02T19:16:41;4.01;;;1.17;;
43413;SDS011;29013;49.676;8.606;2023-02-02T19:22:12;4.24;;;1.44;;
43413;SDS011;29013;49.676;8.606;2023-02-02T19:27:31;4.18;;;1.37;;
43413;SDS011;29013;49.676;8.606;2023-02-02T19:33:17;3.89;;;1.31;;
43413;SDS011;29013;49.676;8.606;2023-02-02T19:38:40;3.67;;;1.3;;
43413;SDS011;29013;49.676;8.606;2023-02-02T19:44:09;3.27;;;1.2;;
43413;SDS011;29013;49.676;8.606;2023-02-02T19:49:32;4.69;;;1.22;;
43413;SDS011;29013;49.676;8.606;2023-02-02T19:54:55;4.46;;;1.22;;
43413;SDS011;29013;49.676;8.606;2023-02-02T20:00:21;6.36;;;1.28;;
43413;SDS011;29013;49.676;8.606;2023-02-02T20:05:46;4.63;;;1.73;;
43413;SDS011;29013;49.676;8.606;2023-02-02T20:11:18;3.22;;;1.56;;
43413;SDS011;29013;49.676;8.606;2023-02-02T20:16:41;5.41;;;1.46;;
43413;SDS011;29013;49.676;8.606;2023-02-02T20:22:02;4.72;;;1.58;;
43413;SDS011;29013;49.676;8.606;2023-02-02T20:27:26;3.76;;;1.44;;
43413;SDS011;29013;49.676;8.606;2023-02-02T20:32:52;5.57;;;1.72;;
43413;SDS011;29013;49.676;8.606;2023-02-02T20:38:22;5.58;;;1.59;;
43413;SDS011;29013;49.676;8.606;2023-02-02T20:43:45;3.84;;;1.9;;
43413;SDS011;29013;49.676;8.606;2023-02-02T20:49:08;3.63;;;1.38;;
43413;SDS011;29013;49.676;8.606;2023-02-02T20:54:34;4.17;;;1.63;;
43413;SDS011;29013;49.676;8.606;2023-02-02T20:59:57;5.01;;;1.62;;
43413;SDS011;29013;49.676;8.606;2023-02-02T21:05:15;6.24;;;1.54;;
43413;SDS011;29013;49.676;8.606;2023-02-02T21:10:38;5.38;;;1.32;;
43413;SDS011;29013;49.676;8.606;2023-02-02T21:16:01;3.51;;;1.25;;
43413;SDS011;29013;49.676;8.606;2023-02-02T21:21:25;4.57;;;1.53;;
43413;SDS011;29013;49.676;8.606;2023-02-02T21:26:47;4.48;;;1.44;;
43413;SDS011;29013;49.676;8.606;2023-02-02T21:32:12;5.23;;;1.53;;
43413;SDS011;29013;49.676;8.606;2023-02-02T21:37:37;2.76;;;1.09;;
43413;SDS011;29013;49.676;8.606;2023-02-02T21:43:07;6.15;;;1.88;;
43413;SDS011;29013;49.676;8.606;2023-02-02T21:49:34;3.9;;;1.5;;
43413;SDS011;29013;49.676;8.606;2023-02-02T21:54:53;2.92;;;1.42;;
43413;SDS011;29013;49.676;8.606;2023-02-02T22:00:20;2.96;;;1.28;;
43413;SDS011;29013;49.676;8.606;2023-02-02T22:05:40;3.44;;;1.39;;
43413;SDS011;29013;49.676;8.606;2023-02-02T22:11:20;4.93;;;1.33;;
43413;SDS011;29013;49.676;8.606;2023-02-02T22:17:06;3.1;;;1.28;;
43413;SDS011;29013;49.676;8.606;2023-02-02T22:22:42;4.35;;;1.13;;
43413;SDS011;29013;49.676;8.606;2023-02-02T22:28:10;2.41;;;1.47;;
43413;SDS011;29013;49.676;8.606;2023-02-02T22:33:31;4.44;;;1.61;;
43413;SDS011;29013;49.676;8.606;2023-02-02T22:38:56;2.66;;;1.26;;
43413;SDS011;29013;49.676;8.606;2023-02-02T22:44:21;4.94;;;1.48;;
43413;SDS011;29013;49.676;8.606;2023-02-02T22:49:46;5.39;;;2.0;;
43413;SDS011;29013;49.676;8.606;2023-02-02T22:55:14;3.88;;;1.38;;
43413;SDS011;29013;49.676;8.606;2023-02-02T23:00:38;4.13;;;1.48;;
43413;SDS011;29013;49.676;8.606;2023-02-02T23:06:02;4.28;;;1.72;;
43413;SDS011;29013;49.676;8.606;2023-02-02T23:11:27;2.22;;;1.39;;
43413;SDS011;29013;49.676;8.606;2023-02-02T23:16:53;2.21;;;1.61;;
43413;SDS011;29013;49.676;8.606;2023-02-02T23:22:17;7.18;;;1.8;;
43413;SDS011;29013;49.676;8.606;2023-02-02T23:27:42;4.35;;;1.73;;
43413;SDS011;29013;49.676;8.606;2023-02-02T23:33:07;5.24;;;1.91;;
43413;SDS011;29013;49.676;8.606;2023-02-02T23:38:31;5.72;;;1.81;;
43413;SDS011;29013;49.676;8.606;2023-02-02T23:43:57;4.85;;;2.24;;
43413;SDS011;29013;49.676;8.606;2023-02-02T23:49:22;3.53;;;1.89;;
43413;SDS011;29013;49.676;8.606;2023-02-02T23:54:48;4.88;;;1.89;;
